sensor_id;sensor_type;location;lat;lon;timestamp;temperature;humidity
16980;DHT22;42288;52.182;21.156;2023-01-04T00:00:13;6.80;89.80
16980;DHT22;42288;52.182;21.156;2023-01-04T00:02:39;6.90;89.70
16980;DHT22;42288;52.182;21.156;2023-01-04T00:05:05;6.80;89.40
16980;DHT22;42288;52.182;21.156;2023-01-04T00:07:30;6.70;89.20
16980;DHT22;42288;52.182;21.156;2023-01-04T00:09:56;6.70;90.00
16980;DHT22;42288;52.182;21.156;2023-01-04T00:12:22;6.70;89.90
16980;DHT22;42288;52.182;21.156;2023-01-04T00:14:47;6.70;89.80
16980;DHT22;42288;52.182;21.156;2023-01-04T00:17:13;6.70;90.00
16980;DHT22;42288;52.182;21.156;2023-01-04T00:19:39;6.80;90.00
16980;DHT22;42288;52.182;21.156;2023-01-04T00:22:04;6.80;89.60
16980;DHT22;42288;52.182;21.156;2023-01-04T00:24:30;6.80;89.70
16980;DHT22;42288;52.182;21.156;2023-01-04T00:26:56;6.80;89.30
16980;DHT22;42288;52.182;21.156;2023-01-04T00:29:21;6.90;89.80
16980;DHT22;42288;52.182;21.156;2023-01-04T00:31:47;6.90;88.60
16980;DHT22;42288;52.182;21.156;2023-01-04T00:34:14;6.80;88.80
16980;DHT22;42288;52.182;21.156;2023-01-04T00:36:40;6.70;89.50
16980;DHT22;42288;52.182;21.156;2023-01-04T00:39:06;6.80;89.10
16980;DHT22;42288;52.182;21.156;2023-01-04T00:41:37;6.70;89.30
16980;DHT22;42288;52.182;21.156;2023-01-04T00:44:05;6.70;89.50
16980;DHT22;42288;52.182;21.156;2023-01-04T00:46:31;6.60;89.90
16980;DHT22;42288;52.182;21.156;2023-01-04T00:48:58;6.60;90.10
16980;DHT22;42288;52.182;21.156;2023-01-04T00:51:23;6.60;90.00
16980;DHT22;42288;52.182;21.156;2023-01-04T00:53:49;6.70;90.00
16980;DHT22;42288;52.182;21.156;2023-01-04T00:56:15;6.70;89.80
16980;DHT22;42288;52.182;21.156;2023-01-04T00:58:40;6.70;89.60
16980;DHT22;42288;52.182;21.156;2023-01-04T01:01:07;6.70;89.40
16980;DHT22;42288;52.182;21.156;2023-01-04T01:03:33;6.70;89.50
16980;DHT22;42288;52.182;21.156;2023-01-04T01:06:03;6.50;88.90
16980;DHT22;42288;52.182;21.156;2023-01-04T01:08:31;6.60;90.00
16980;DHT22;42288;52.182;21.156;2023-01-04T01:11:05;6.60;90.00
16980;DHT22;42288;52.182;21.156;2023-01-04T01:13:32;6.60;90.00
16980;DHT22;42288;52.182;21.156;2023-01-04T01:16:08;6.60;90.10
16980;DHT22;42288;52.182;21.156;2023-01-04T01:18:35;6.60;90.00
16980;DHT22;42288;52.182;21.156;2023-01-04T01:21:10;6.50;90.00
16980;DHT22;42288;52.182;21.156;2023-01-04T01:23:36;6.50;90.20
16980;DHT22;42288;52.182;21.156;2023-01-04T01:26:04;6.40;90.40
16980;DHT22;42288;52.182;21.156;2023-01-04T01:28:30;6.30;90.40
16980;DHT22;42288;52.182;21.156;2023-01-04T01:30:56;6.40;90.40
16980;DHT22;42288;52.182;21.156;2023-01-04T01:33:26;6.40;90.40
16980;DHT22;42288;52.182;21.156;2023-01-04T01:35:52;6.30;90.50
16980;DHT22;42288;52.182;21.156;2023-01-04T01:38:17;6.30;90.50
16980;DHT22;42288;52.182;21.156;2023-01-04T01:40:44;6.30;90.60
16980;DHT22;42288;52.182;21.156;2023-01-04T01:43:21;6.30;90.70
16980;DHT22;42288;52.182;21.156;2023-01-04T01:45:50;6.30;90.70
16980;DHT22;42288;52.182;21.156;2023-01-04T01:48:20;6.20;90.60
16980;DHT22;42288;52.182;21.156;2023-01-04T01:50:53;6.20;90.80
16980;DHT22;42288;52.182;21.156;2023-01-04T01:53:20;6.10;90.80
16980;DHT22;42288;52.182;21.156;2023-01-04T01:55:48;6.00;91.00
16980;DHT22;42288;52.182;21.156;2023-01-04T01:58:24;5.90;91.20
16980;DHT22;42288;52.182;21.156;2023-01-04T02:00:51;5.80;91.40
16980;DHT22;42288;52.182;21.156;2023-01-04T02:03:21;5.70;91.70
16980;DHT22;42288;52.182;21.156;2023-01-04T02:05:51;5.70;91.80
16980;DHT22;42288;52.182;21.156;2023-01-04T02:08:19;5.50;91.70
16980;DHT22;42288;52.182;21.156;2023-01-04T02:10:46;5.40;92.10
16980;DHT22;42288;52.182;21.156;2023-01-04T02:13:15;5.20;92.50
16980;DHT22;42288;52.182;21.156;2023-01-04T02:15:58;5.20;92.60
16980;DHT22;42288;52.182;21.156;2023-01-04T02:18:36;5.30;92.70
16980;DHT22;42288;52.182;21.156;2023-01-04T02:21:13;5.10;92.60
16980;DHT22;42288;52.182;21.156;2023-01-04T02:37:28;4.50;94.50
16980;DHT22;42288;52.182;21.156;2023-01-04T02:42:32;4.60;94.60
16980;DHT22;42288;52.182;21.156;2023-01-04T02:45:26;4.60;94.70
16980;DHT22;42288;52.182;21.156;2023-01-04T02:47:54;4.60;94.70
16980;DHT22;42288;52.182;21.156;2023-01-04T02:50:56;4.50;95.00
16980;DHT22;42288;52.182;21.156;2023-01-04T03:04:46;3.80;95.80
16980;DHT22;42288;52.182;21.156;2023-01-04T03:07:38;3.90;95.80
16980;DHT22;42288;52.182;21.156;2023-01-04T03:13:03;3.70;96.50
16980;DHT22;42288;52.182;21.156;2023-01-04T03:15:33;3.50;96.30
16980;DHT22;42288;52.182;21.156;2023-01-04T03:18:20;3.40;96.60
16980;DHT22;42288;52.182;21.156;2023-01-04T03:20:49;3.50;96.90
16980;DHT22;42288;52.182;21.156;2023-01-04T03:23:20;3.50;96.60
16980;DHT22;42288;52.182;21.156;2023-01-04T03:26:09;3.70;96.90
16980;DHT22;42288;52.182;21.156;2023-01-04T03:32:34;3.70;96.10
16980;DHT22;42288;52.182;21.156;2023-01-04T03:35:26;3.70;96.40
16980;DHT22;42288;52.182;21.156;2023-01-04T03:38:07;3.80;96.20
16980;DHT22;42288;52.182;21.156;2023-01-04T03:41:11;3.40;95.80
16980;DHT22;42288;52.182;21.156;2023-01-04T03:46:57;3.10;97.10
16980;DHT22;42288;52.182;21.156;2023-01-04T03:49:53;3.10;97.50
16980;DHT22;42288;52.182;21.156;2023-01-04T03:52:26;3.20;97.80
16980;DHT22;42288;52.182;21.156;2023-01-04T03:54:53;3.10;97.00
16980;DHT22;42288;52.182;21.156;2023-01-04T03:57:21;3.10;97.80
16980;DHT22;42288;52.182;21.156;2023-01-04T03:59:56;3.20;97.40
16980;DHT22;42288;52.182;21.156;2023-01-04T04:02:27;3.40;97.40
16980;DHT22;42288;52.182;21.156;2023-01-04T04:04:53;3.50;96.90
16980;DHT22;42288;52.182;21.156;2023-01-04T04:07:38;3.60;96.50
16980;DHT22;42288;52.182;21.156;2023-01-04T04:10:21;3.60;96.10
16980;DHT22;42288;52.182;21.156;2023-01-04T04:12:47;3.50;95.40
16980;DHT22;42288;52.182;21.156;2023-01-04T04:15:13;3.20;95.20
16980;DHT22;42288;52.182;21.156;2023-01-04T04:17:39;3.30;96.20
16980;DHT22;42288;52.182;21.156;2023-01-04T04:20:05;3.30;95.70
16980;DHT22;42288;52.182;21.156;2023-01-04T04:22:31;3.10;95.50
16980;DHT22;42288;52.182;21.156;2023-01-04T04:24:56;3.10;96.10
16980;DHT22;42288;52.182;21.156;2023-01-04T04:27:22;3.10;96.00
16980;DHT22;42288;52.182;21.156;2023-01-04T04:29:47;3.20;96.20
16980;DHT22;42288;52.182;21.156;2023-01-04T04:32:13;3.20;95.90
16980;DHT22;42288;52.182;21.156;2023-01-04T04:34:39;3.20;95.70
16980;DHT22;42288;52.182;21.156;2023-01-04T04:37:05;3.10;95.90
16980;DHT22;42288;52.182;21.156;2023-01-04T04:39:31;2.90;96.20
16980;DHT22;42288;52.182;21.156;2023-01-04T04:41:56;2.90;96.40
16980;DHT22;42288;52.182;21.156;2023-01-04T04:44:22;2.80;96.10
16980;DHT22;42288;52.182;21.156;2023-01-04T04:46:48;2.90;96.60
16980;DHT22;42288;52.182;21.156;2023-01-04T04:49:15;2.90;96.50
16980;DHT22;42288;52.182;21.156;2023-01-04T04:51:41;2.80;96.60
16980;DHT22;42288;52.182;21.156;2023-01-04T04:54:09;2.90;96.40
16980;DHT22;42288;52.182;21.156;2023-01-04T04:56:35;3.00;96.20
16980;DHT22;42288;52.182;21.156;2023-01-04T04:59:02;3.00;95.80
16980;DHT22;42288;52.182;21.156;2023-01-04T05:01:28;2.90;95.70
16980;DHT22;42288;52.182;21.156;2023-01-04T05:03:54;2.60;95.50
16980;DHT22;42288;52.182;21.156;2023-01-04T05:06:20;2.60;95.90
16980;DHT22;42288;52.182;21.156;2023-01-04T05:08:46;2.60;96.30
16980;DHT22;42288;52.182;21.156;2023-01-04T05:11:12;2.80;96.30
16980;DHT22;42288;52.182;21.156;2023-01-04T05:13:38;2.70;96.00
16980;DHT22;42288;52.182;21.156;2023-01-04T05:16:05;2.70;96.20
16980;DHT22;42288;52.182;21.156;2023-01-04T05:18:31;2.70;95.90
16980;DHT22;42288;52.182;21.156;2023-01-04T05:20:56;2.70;96.00
16980;DHT22;42288;52.182;21.156;2023-01-04T05:23:22;2.70;96.20
16980;DHT22;42288;52.182;21.156;2023-01-04T05:26:14;2.60;96.30
16980;DHT22;42288;52.182;21.156;2023-01-04T05:28:40;2.60;96.60
16980;DHT22;42288;52.182;21.156;2023-01-04T05:31:05;2.60;96.40
16980;DHT22;42288;52.182;21.156;2023-01-04T05:33:31;2.50;96.40
16980;DHT22;42288;52.182;21.156;2023-01-04T05:35:59;2.60;96.10
16980;DHT22;42288;52.182;21.156;2023-01-04T05:38:25;2.40;95.40
16980;DHT22;42288;52.182;21.156;2023-01-04T05:40:52;2.30;95.40
16980;DHT22;42288;52.182;21.156;2023-01-04T05:43:19;2.10;95.30
16980;DHT22;42288;52.182;21.156;2023-01-04T05:45:53;2.20;96.10
16980;DHT22;42288;52.182;21.156;2023-01-04T05:48:19;1.80;95.30
16980;DHT22;42288;52.182;21.156;2023-01-04T05:50:45;1.90;96.80
16980;DHT22;42288;52.182;21.156;2023-01-04T05:53:12;2.00;97.00
16980;DHT22;42288;52.182;21.156;2023-01-04T05:55:38;2.10;96.40
16980;DHT22;42288;52.182;21.156;2023-01-04T05:58:04;1.90;96.30
16980;DHT22;42288;52.182;21.156;2023-01-04T06:00:29;1.70;95.90
16980;DHT22;42288;52.182;21.156;2023-01-04T06:02:55;1.60;96.80
16980;DHT22;42288;52.182;21.156;2023-01-04T06:05:24;1.50;97.20
16980;DHT22;42288;52.182;21.156;2023-01-04T06:07:50;1.70;97.50
16980;DHT22;42288;52.182;21.156;2023-01-04T06:10:16;1.90;97.60
16980;DHT22;42288;52.182;21.156;2023-01-04T06:12:42;1.90;97.20
16980;DHT22;42288;52.182;21.156;2023-01-04T06:15:09;1.60;96.70
16980;DHT22;42288;52.182;21.156;2023-01-04T06:17:35;1.70;97.40
16980;DHT22;42288;52.182;21.156;2023-01-04T06:20:01;1.60;97.30
16980;DHT22;42288;52.182;21.156;2023-01-04T06:22:28;1.60;97.80
16980;DHT22;42288;52.182;21.156;2023-01-04T06:24:53;1.80;98.30
16980;DHT22;42288;52.182;21.156;2023-01-04T06:27:19;2.00;98.10
16980;DHT22;42288;52.182;21.156;2023-01-04T06:29:44;2.20;97.80
16980;DHT22;42288;52.182;21.156;2023-01-04T06:32:10;2.20;97.10
16980;DHT22;42288;52.182;21.156;2023-01-04T06:34:36;2.20;96.40
16980;DHT22;42288;52.182;21.156;2023-01-04T06:37:02;2.10;96.50
16980;DHT22;42288;52.182;21.156;2023-01-04T06:39:28;2.30;97.00
16980;DHT22;42288;52.182;21.156;2023-01-04T06:41:53;2.40;96.80
16980;DHT22;42288;52.182;21.156;2023-01-04T06:44:19;2.50;96.30
16980;DHT22;42288;52.182;21.156;2023-01-04T06:46:45;2.40;95.90
16980;DHT22;42288;52.182;21.156;2023-01-04T06:49:10;2.30;96.30
16980;DHT22;42288;52.182;21.156;2023-01-04T06:51:36;2.40;96.50
16980;DHT22;42288;52.182;21.156;2023-01-04T06:54:01;2.40;96.20
16980;DHT22;42288;52.182;21.156;2023-01-04T06:56:27;2.40;96.60
16980;DHT22;42288;52.182;21.156;2023-01-04T06:58:53;2.40;96.40
16980;DHT22;42288;52.182;21.156;2023-01-04T07:01:18;2.40;96.20
16980;DHT22;42288;52.182;21.156;2023-01-04T07:03:44;2.50;96.10
16980;DHT22;42288;52.182;21.156;2023-01-04T07:06:09;2.50;96.20
16980;DHT22;42288;52.182;21.156;2023-01-04T07:08:35;2.30;95.90
16980;DHT22;42288;52.182;21.156;2023-01-04T07:11:00;2.20;96.10
16980;DHT22;42288;52.182;21.156;2023-01-04T07:13:26;2.30;96.70
16980;DHT22;42288;52.182;21.156;2023-01-04T07:15:52;2.40;96.70
16980;DHT22;42288;52.182;21.156;2023-01-04T07:18:17;2.60;96.80
16980;DHT22;42288;52.182;21.156;2023-01-04T07:20:43;2.60;96.40
16980;DHT22;42288;52.182;21.156;2023-01-04T07:23:08;2.60;96.40
16980;DHT22;42288;52.182;21.156;2023-01-04T07:25:34;2.60;96.10
16980;DHT22;42288;52.182;21.156;2023-01-04T07:28:00;2.70;96.40
16980;DHT22;42288;52.182;21.156;2023-01-04T07:30:25;2.80;96.20
16980;DHT22;42288;52.182;21.156;2023-01-04T07:32:52;3.10;95.80
16980;DHT22;42288;52.182;21.156;2023-01-04T07:35:18;3.10;95.30
16980;DHT22;42288;52.182;21.156;2023-01-04T07:37:44;3.10;95.40
16980;DHT22;42288;52.182;21.156;2023-01-04T07:40:10;3.10;95.20
16980;DHT22;42288;52.182;21.156;2023-01-04T07:42:36;3.10;95.20
16980;DHT22;42288;52.182;21.156;2023-01-04T07:45:03;3.20;95.10
16980;DHT22;42288;52.182;21.156;2023-01-04T07:47:28;3.00;95.20
16980;DHT22;42288;52.182;21.156;2023-01-04T07:49:54;3.10;95.30
16980;DHT22;42288;52.182;21.156;2023-01-04T07:52:20;2.60;95.90
16980;DHT22;42288;52.182;21.156;2023-01-04T07:54:45;2.60;96.20
16980;DHT22;42288;52.182;21.156;2023-01-04T07:57:11;2.50;96.80
16980;DHT22;42288;52.182;21.156;2023-01-04T07:59:36;2.10;97.70
16980;DHT22;42288;52.182;21.156;2023-01-04T08:02:02;2.20;98.30
16980;DHT22;42288;52.182;21.156;2023-01-04T08:04:27;2.10;98.50
16980;DHT22;42288;52.182;21.156;2023-01-04T08:06:53;2.10;98.90
16980;DHT22;42288;52.182;21.156;2023-01-04T08:09:18;2.20;99.40
16980;DHT22;42288;52.182;21.156;2023-01-04T08:11:45;2.10;99.50
16980;DHT22;42288;52.182;21.156;2023-01-04T08:14:11;2.00;99.90
16980;DHT22;42288;52.182;21.156;2023-01-04T08:16:39;2.00;99.90
16980;DHT22;42288;52.182;21.156;2023-01-04T08:19:07;1.90;99.90
16980;DHT22;42288;52.182;21.156;2023-01-04T08:21:36;1.80;99.90
16980;DHT22;42288;52.182;21.156;2023-01-04T08:24:02;1.90;99.90
16980;DHT22;42288;52.182;21.156;2023-01-04T08:26:28;2.10;99.90
16980;DHT22;42288;52.182;21.156;2023-01-04T08:28:54;2.00;99.90
16980;DHT22;42288;52.182;21.156;2023-01-04T08:31:24;2.40;99.90
16980;DHT22;42288;52.182;21.156;2023-01-04T08:33:51;2.40;99.90
16980;DHT22;42288;52.182;21.156;2023-01-04T08:36:25;2.40;99.90
16980;DHT22;42288;52.182;21.156;2023-01-04T08:38:53;2.50;99.90
16980;DHT22;42288;52.182;21.156;2023-01-04T08:41:18;2.60;99.90
16980;DHT22;42288;52.182;21.156;2023-01-04T08:43:44;2.40;99.90
16980;DHT22;42288;52.182;21.156;2023-01-04T08:46:11;2.50;99.90
16980;DHT22;42288;52.182;21.156;2023-01-04T08:48:37;2.60;99.90
16980;DHT22;42288;52.182;21.156;2023-01-04T08:51:08;2.90;99.90
16980;DHT22;42288;52.182;21.156;2023-01-04T08:53:35;2.90;99.90
16980;DHT22;42288;52.182;21.156;2023-01-04T08:56:01;3.10;99.90
16980;DHT22;42288;52.182;21.156;2023-01-04T08:58:28;3.20;99.90
16980;DHT22;42288;52.182;21.156;2023-01-04T09:01:09;3.40;99.90
16980;DHT22;42288;52.182;21.156;2023-01-04T09:03:36;3.70;99.90
16980;DHT22;42288;52.182;21.156;2023-01-04T09:06:07;4.00;99.90
16980;DHT22;42288;52.182;21.156;2023-01-04T09:08:34;4.00;99.90
16980;DHT22;42288;52.182;21.156;2023-01-04T09:11:14;4.00;99.90
16980;DHT22;42288;52.182;21.156;2023-01-04T09:13:40;4.20;99.90
16980;DHT22;42288;52.182;21.156;2023-01-04T09:16:11;4.50;99.80
16980;DHT22;42288;52.182;21.156;2023-01-04T09:18:37;4.70;99.50
16980;DHT22;42288;52.182;21.156;2023-01-04T09:21:11;5.00;99.20
16980;DHT22;42288;52.182;21.156;2023-01-04T09:23:37;5.30;98.50
16980;DHT22;42288;52.182;21.156;2023-01-04T09:26:05;5.50;97.70
16980;DHT22;42288;52.182;21.156;2023-01-04T09:28:31;5.90;97.70
16980;DHT22;42288;52.182;21.156;2023-01-04T09:30:57;5.60;96.50
16980;DHT22;42288;52.182;21.156;2023-01-04T09:33:22;6.00;97.10
16980;DHT22;42288;52.182;21.156;2023-01-04T09:35:48;5.60;96.70
16980;DHT22;42288;52.182;21.156;2023-01-04T09:38:13;6.20;97.50
16980;DHT22;42288;52.182;21.156;2023-01-04T09:40:51;6.20;96.40
16980;DHT22;42288;52.182;21.156;2023-01-04T09:43:19;6.10;96.10
16980;DHT22;42288;52.182;21.156;2023-01-04T09:45:49;6.10;96.20
16980;DHT22;42288;52.182;21.156;2023-01-04T09:48:23;6.40;96.50
16980;DHT22;42288;52.182;21.156;2023-01-04T09:51:03;6.50;95.90
16980;DHT22;42288;52.182;21.156;2023-01-04T09:53:43;6.60;95.70
16980;DHT22;42288;52.182;21.156;2023-01-04T09:56:21;6.50;95.60
16980;DHT22;42288;52.182;21.156;2023-01-04T09:58:48;6.60;95.70
16980;DHT22;42288;52.182;21.156;2023-01-04T10:01:21;6.90;95.60
16980;DHT22;42288;52.182;21.156;2023-01-04T10:04:14;7.30;95.70
16980;DHT22;42288;52.182;21.156;2023-01-04T10:06:40;8.50;94.40
16980;DHT22;42288;52.182;21.156;2023-01-04T10:09:10;9.10;92.20
16980;DHT22;42288;52.182;21.156;2023-01-04T10:12:15;9.30;91.20
16980;DHT22;42288;52.182;21.156;2023-01-04T10:14:51;9.00;90.80
16980;DHT22;42288;52.182;21.156;2023-01-04T10:23:09;8.60;90.80
16980;DHT22;42288;52.182;21.156;2023-01-04T10:28:45;7.40;92.00
16980;DHT22;42288;52.182;21.156;2023-01-04T10:31:26;8.10;93.00
16980;DHT22;42288;52.182;21.156;2023-01-04T10:34:05;9.00;91.10
16980;DHT22;42288;52.182;21.156;2023-01-04T10:36:37;9.40;90.30
16980;DHT22;42288;52.182;21.156;2023-01-04T10:39:12;8.80;90.20
16980;DHT22;42288;52.182;21.156;2023-01-04T10:41:42;8.90;90.60
16980;DHT22;42288;52.182;21.156;2023-01-04T10:45:04;8.90;90.20
16980;DHT22;42288;52.182;21.156;2023-01-04T10:47:15;8.00;90.50
16980;DHT22;42288;52.182;21.156;2023-01-04T10:49:50;7.30;92.10
16980;DHT22;42288;52.182;21.156;2023-01-04T10:52:50;7.80;93.00
16980;DHT22;42288;52.182;21.156;2023-01-04T10:55:28;7.50;92.30
16980;DHT22;42288;52.182;21.156;2023-01-04T10:58:09;7.70;93.20
16980;DHT22;42288;52.182;21.156;2023-01-04T11:00:44;7.70;93.10
16980;DHT22;42288;52.182;21.156;2023-01-04T11:03:33;7.60;92.80
16980;DHT22;42288;52.182;21.156;2023-01-04T11:06:29;7.40;93.20
16980;DHT22;42288;52.182;21.156;2023-01-04T11:09:20;7.60;93.10
16980;DHT22;42288;52.182;21.156;2023-01-04T11:11:47;7.30;92.20
16980;DHT22;42288;52.182;21.156;2023-01-04T11:14:15;7.40;92.80
16980;DHT22;42288;52.182;21.156;2023-01-04T11:16:44;7.40;93.20
16980;DHT22;42288;52.182;21.156;2023-01-04T11:19:11;7.60;93.60
16980;DHT22;42288;52.182;21.156;2023-01-04T11:21:46;7.30;93.30
16980;DHT22;42288;52.182;21.156;2023-01-04T11:24:13;6.80;93.10
16980;DHT22;42288;52.182;21.156;2023-01-04T11:26:42;7.00;94.40
16980;DHT22;42288;52.182;21.156;2023-01-04T11:32:07;6.90;94.70
16980;DHT22;42288;52.182;21.156;2023-01-04T11:37:33;7.00;94.30
16980;DHT22;42288;52.182;21.156;2023-01-04T11:40:28;7.00;94.80
16980;DHT22;42288;52.182;21.156;2023-01-04T11:43:17;7.20;94.60
16980;DHT22;42288;52.182;21.156;2023-01-04T11:45:56;7.30;94.30
16980;DHT22;42288;52.182;21.156;2023-01-04T11:50:56;7.40;94.50
16980;DHT22;42288;52.182;21.156;2023-01-04T11:53:36;7.30;94.10
16980;DHT22;42288;52.182;21.156;2023-01-04T11:56:12;7.30;94.40
16980;DHT22;42288;52.182;21.156;2023-01-04T11:58:39;7.40;94.30
16980;DHT22;42288;52.182;21.156;2023-01-04T12:01:05;7.60;94.20
16980;DHT22;42288;52.182;21.156;2023-01-04T12:03:32;7.10;94.20
16980;DHT22;42288;52.182;21.156;2023-01-04T12:05:59;7.10;94.40
16980;DHT22;42288;52.182;21.156;2023-01-04T12:08:29;7.10;95.00
16980;DHT22;42288;52.182;21.156;2023-01-04T12:10:56;7.00;95.00
16980;DHT22;42288;52.182;21.156;2023-01-04T12:13:23;7.10;95.10
16980;DHT22;42288;52.182;21.156;2023-01-04T12:18:42;6.80;95.60
16980;DHT22;42288;52.182;21.156;2023-01-04T12:23:45;6.90;95.70
16980;DHT22;42288;52.182;21.156;2023-01-04T12:26:12;6.80;95.90
16980;DHT22;42288;52.182;21.156;2023-01-04T12:28:40;6.80;96.40
16980;DHT22;42288;52.182;21.156;2023-01-04T12:33:56;7.20;96.30
16980;DHT22;42288;52.182;21.156;2023-01-04T12:50:20;7.30;95.80
16980;DHT22;42288;52.182;21.156;2023-01-04T12:52:52;7.10;95.80
16980;DHT22;42288;52.182;21.156;2023-01-04T12:57:57;6.80;96.10
16980;DHT22;42288;52.182;21.156;2023-01-04T13:05:54;7.10;96.50
16980;DHT22;42288;52.182;21.156;2023-01-04T13:08:20;7.00;96.30
16980;DHT22;42288;52.182;21.156;2023-01-04T13:10:48;6.70;96.60
16980;DHT22;42288;52.182;21.156;2023-01-04T13:13:48;6.80;97.00
16980;DHT22;42288;52.182;21.156;2023-01-04T13:16:24;6.80;96.70
16980;DHT22;42288;52.182;21.156;2023-01-04T13:18:53;7.00;96.70
16980;DHT22;42288;52.182;21.156;2023-01-04T13:21:38;6.90;96.70
16980;DHT22;42288;52.182;21.156;2023-01-04T13:24:31;6.90;96.70
16980;DHT22;42288;52.182;21.156;2023-01-04T13:27:06;7.00;96.60
16980;DHT22;42288;52.182;21.156;2023-01-04T13:29:33;7.10;96.80
16980;DHT22;42288;52.182;21.156;2023-01-04T13:32:03;7.00;96.50
16980;DHT22;42288;52.182;21.156;2023-01-04T13:34:30;7.20;96.70
16980;DHT22;42288;52.182;21.156;2023-01-04T13:39:36;7.30;96.30
16980;DHT22;42288;52.182;21.156;2023-01-04T13:42:03;7.20;96.20
16980;DHT22;42288;52.182;21.156;2023-01-04T13:47:19;7.20;96.40
16980;DHT22;42288;52.182;21.156;2023-01-04T13:49:45;7.20;96.40
16980;DHT22;42288;52.182;21.156;2023-01-04T13:52:27;7.10;96.40
16980;DHT22;42288;52.182;21.156;2023-01-04T13:55:19;7.20;96.40
16980;DHT22;42288;52.182;21.156;2023-01-04T13:57:58;7.30;96.50
16980;DHT22;42288;52.182;21.156;2023-01-04T14:00:29;7.20;96.20
16980;DHT22;42288;52.182;21.156;2023-01-04T14:03:10;7.20;96.40
16980;DHT22;42288;52.182;21.156;2023-01-04T14:05:37;7.00;96.60
16980;DHT22;42288;52.182;21.156;2023-01-04T14:08:09;6.80;96.80
16980;DHT22;42288;52.182;21.156;2023-01-04T14:10:35;7.00;97.00
16980;DHT22;42288;52.182;21.156;2023-01-04T14:13:02;6.80;97.00
16980;DHT22;42288;52.182;21.156;2023-01-04T14:15:29;7.00;97.30
16980;DHT22;42288;52.182;21.156;2023-01-04T14:17:58;7.00;97.20
16980;DHT22;42288;52.182;21.156;2023-01-04T14:20:32;7.20;97.00
16980;DHT22;42288;52.182;21.156;2023-01-04T14:22:59;7.20;96.60
16980;DHT22;42288;52.182;21.156;2023-01-04T14:30:50;7.20;96.80
16980;DHT22;42288;52.182;21.156;2023-01-04T14:33:29;7.30;96.70
16980;DHT22;42288;52.182;21.156;2023-01-04T14:44:14;7.30;96.20
16980;DHT22;42288;52.182;21.156;2023-01-04T14:46:42;7.50;96.10
16980;DHT22;42288;52.182;21.156;2023-01-04T14:49:10;7.50;95.90
16980;DHT22;42288;52.182;21.156;2023-01-04T14:51:45;7.40;95.70
16980;DHT22;42288;52.182;21.156;2023-01-04T14:54:12;7.40;95.70
16980;DHT22;42288;52.182;21.156;2023-01-04T14:56:39;7.50;95.50
16980;DHT22;42288;52.182;21.156;2023-01-04T14:59:06;7.50;95.40
16980;DHT22;42288;52.182;21.156;2023-01-04T15:01:31;7.60;95.40
16980;DHT22;42288;52.182;21.156;2023-01-04T15:03:58;7.60;95.20
16980;DHT22;42288;52.182;21.156;2023-01-04T15:06:23;7.70;95.60
16980;DHT22;42288;52.182;21.156;2023-01-04T15:08:49;7.60;96.00
16980;DHT22;42288;52.182;21.156;2023-01-04T15:11:17;7.40;97.10
16980;DHT22;42288;52.182;21.156;2023-01-04T15:13:43;7.20;98.50
16980;DHT22;42288;52.182;21.156;2023-01-04T15:16:12;7.30;98.70
16980;DHT22;42288;52.182;21.156;2023-01-04T15:18:41;7.30;98.90
16980;DHT22;42288;52.182;21.156;2023-01-04T15:21:07;7.30;99.30
16980;DHT22;42288;52.182;21.156;2023-01-04T15:23:34;7.20;99.30
16980;DHT22;42288;52.182;21.156;2023-01-04T15:26:02;7.00;99.70
16980;DHT22;42288;52.182;21.156;2023-01-04T15:28:28;7.10;99.90
16980;DHT22;42288;52.182;21.156;2023-01-04T15:30:53;7.00;99.90
16980;DHT22;42288;52.182;21.156;2023-01-04T15:33:19;7.00;99.90
16980;DHT22;42288;52.182;21.156;2023-01-04T15:35:45;7.00;99.90
16980;DHT22;42288;52.182;21.156;2023-01-04T15:38:11;6.90;99.90
16980;DHT22;42288;52.182;21.156;2023-01-04T15:40:39;7.00;99.90
16980;DHT22;42288;52.182;21.156;2023-01-04T15:43:05;6.90;99.90
16980;DHT22;42288;52.182;21.156;2023-01-04T15:45:38;7.00;99.90
16980;DHT22;42288;52.182;21.156;2023-01-04T15:48:05;7.20;99.90
16980;DHT22;42288;52.182;21.156;2023-01-04T15:50:39;7.20;99.90
16980;DHT22;42288;52.182;21.156;2023-01-04T15:53:05;7.20;99.80
16980;DHT22;42288;52.182;21.156;2023-01-04T15:55:32;7.20;99.90
16980;DHT22;42288;52.182;21.156;2023-01-04T15:57:58;7.20;99.70
16980;DHT22;42288;52.182;21.156;2023-01-04T16:00:24;7.20;99.50
16980;DHT22;42288;52.182;21.156;2023-01-04T16:02:50;7.10;99.80
16980;DHT22;42288;52.182;21.156;2023-01-04T16:05:16;7.20;99.90
16980;DHT22;42288;52.182;21.156;2023-01-04T16:07:42;6.90;99.70
16980;DHT22;42288;52.182;21.156;2023-01-04T16:10:08;7.00;99.90
16980;DHT22;42288;52.182;21.156;2023-01-04T16:12:34;7.00;99.90
16980;DHT22;42288;52.182;21.156;2023-01-04T16:15:08;7.00;99.90
16980;DHT22;42288;52.182;21.156;2023-01-04T16:17:34;7.10;99.90
16980;DHT22;42288;52.182;21.156;2023-01-04T16:20:00;7.10;99.80
16980;DHT22;42288;52.182;21.156;2023-01-04T16:22:25;7.00;99.90
16980;DHT22;42288;52.182;21.156;2023-01-04T16:24:51;7.10;99.90
16980;DHT22;42288;52.182;21.156;2023-01-04T16:27:17;7.20;99.90
16980;DHT22;42288;52.182;21.156;2023-01-04T16:29:42;7.00;99.90
16980;DHT22;42288;52.182;21.156;2023-01-04T16:32:08;7.00;99.90
16980;DHT22;42288;52.182;21.156;2023-01-04T16:34:34;7.00;99.90
16980;DHT22;42288;52.182;21.156;2023-01-04T16:37:00;7.20;99.90
16980;DHT22;42288;52.182;21.156;2023-01-04T16:39:25;7.30;99.90
16980;DHT22;42288;52.182;21.156;2023-01-04T16:41:51;7.30;99.90
16980;DHT22;42288;52.182;21.156;2023-01-04T16:44:16;7.20;99.90
16980;DHT22;42288;52.182;21.156;2023-01-04T16:46:44;7.20;99.90
16980;DHT22;42288;52.182;21.156;2023-01-04T16:49:11;7.10;99.90
16980;DHT22;42288;52.182;21.156;2023-01-04T16:51:39;7.30;99.90
16980;DHT22;42288;52.182;21.156;2023-01-04T16:54:08;7.30;99.90
16980;DHT22;42288;52.182;21.156;2023-01-04T16:56:34;7.30;99.90
16980;DHT22;42288;52.182;21.156;2023-01-04T16:59:00;7.30;99.90
16980;DHT22;42288;52.182;21.156;2023-01-04T17:01:31;7.40;99.90
16980;DHT22;42288;52.182;21.156;2023-01-04T17:03:59;7.20;99.90
16980;DHT22;42288;52.182;21.156;2023-01-04T17:06:29;7.30;99.90
16980;DHT22;42288;52.182;21.156;2023-01-04T17:08:56;7.40;99.90
16980;DHT22;42288;52.182;21.156;2023-01-04T17:13:49;7.30;99.90
16980;DHT22;42288;52.182;21.156;2023-01-04T17:16:15;7.30;99.90
16980;DHT22;42288;52.182;21.156;2023-01-04T17:18:41;7.20;99.90
16980;DHT22;42288;52.182;21.156;2023-01-04T17:21:10;7.10;99.90
16980;DHT22;42288;52.182;21.156;2023-01-04T17:23:39;6.90;99.90
16980;DHT22;42288;52.182;21.156;2023-01-04T17:26:07;6.90;99.90
16980;DHT22;42288;52.182;21.156;2023-01-04T17:28:34;7.00;99.90
16980;DHT22;42288;52.182;21.156;2023-01-04T17:31:07;6.80;99.90